createdAt,value
2017-12-22T00:01:08.209Z,92.04
2017-12-22T00:03:35.789Z,91.83
2017-12-22T00:06:03.462Z,92.33
2017-12-22T00:08:31.099Z,92.13
2017-12-22T00:10:58.675Z,92.04
2017-12-22T00:13:27.027Z,92.45
2017-12-22T00:15:54.894Z,92.53
2017-12-22T00:18:22.515Z,92.67
2017-12-22T00:20:50.160Z,92.54
2017-12-22T00:23:17.827Z,92.84
2017-12-22T00:25:45.601Z,92.63
2017-12-22T00:28:13.183Z,93.00
2017-12-22T00:30:40.763Z,92.89
2017-12-22T00:33:08.395Z,92.76
2017-12-22T00:35:36.003Z,92.47
2017-12-22T00:38:03.700Z,92.56
2017-12-22T00:40:31.369Z,92.54
2017-12-22T00:42:59.034Z,92.95
2017-12-22T00:45:28.223Z,92.88
2017-12-22T00:47:56.626Z,93.31
2017-12-22T00:50:24.795Z,92.96
2017-12-22T00:52:54.098Z,93.28
2017-12-22T00:55:23.859Z,92.93
2017-12-22T00:57:51.479Z,92.69
2017-12-22T01:00:19.087Z,93.10
2017-12-22T01:02:46.671Z,93.38
2017-12-22T01:05:14.282Z,93.22
2017-12-22T01:07:41.868Z,93.25
2017-12-22T01:10:09.559Z,93.19
2017-12-22T01:12:37.143Z,92.97
2017-12-22T01:15:04.752Z,92.92
2017-12-22T01:17:37.801Z,93.05
2017-12-22T01:20:05.410Z,93.26
2017-12-22T01:22:32.991Z,93.56
2017-12-22T01:25:00.579Z,93.16
2017-12-22T01:27:28.202Z,92.93
2017-12-22T01:29:55.775Z,92.96
2017-12-22T01:32:23.388Z,93.22
2017-12-22T01:34:50.958Z,93.34
2017-12-22T01:37:18.539Z,93.19
2017-12-22T01:39:46.115Z,93.07
2017-12-22T01:42:13.699Z,93.10
2017-12-22T01:44:41.279Z,92.63
2017-12-22T01:47:08.858Z,92.61
2017-12-22T01:49:36.535Z,93.01
2017-12-22T01:52:04.146Z,92.74
2017-12-22T01:54:31.795Z,93.20
2017-12-22T01:56:59.456Z,92.91
2017-12-22T01:59:27.170Z,92.83
2017-12-22T02:01:54.733Z,92.67
2017-12-22T02:04:22.315Z,92.43
2017-12-22T02:06:49.890Z,92.48
2017-12-22T02:09:17.472Z,92.68
2017-12-22T02:11:45.384Z,92.63
2017-12-22T02:14:12.963Z,92.37
2017-12-22T02:16:40.662Z,92.06
2017-12-22T02:19:08.238Z,91.98
2017-12-22T02:21:35.815Z,92.07
2017-12-22T02:24:03.448Z,92.43
2017-12-22T02:26:31.036Z,92.37
2017-12-22T02:28:58.650Z,92.44
2017-12-22T02:31:26.266Z,92.06
2017-12-22T02:33:53.847Z,91.97
2017-12-22T02:36:21.459Z,91.83
2017-12-22T02:38:49.121Z,92.01
2017-12-22T02:41:17.135Z,92.00
2017-12-22T02:43:44.776Z,92.71
2017-12-22T02:46:12.390Z,92.08
2017-12-22T02:48:39.974Z,92.32
2017-12-22T02:51:07.564Z,91.76
2017-12-22T02:53:35.153Z,92.16
2017-12-22T02:56:02.732Z,91.68
2017-12-22T02:58:30.310Z,91.52
2017-12-22T03:00:57.985Z,92.09
2017-12-22T03:03:25.652Z,92.38
2017-12-22T03:05:53.276Z,92.06
2017-12-22T03:08:20.866Z,92.10
2017-12-22T03:10:48.543Z,92.11
2017-12-22T03:13:16.163Z,91.55
2017-12-22T03:15:43.864Z,91.73
2017-12-22T03:18:11.518Z,91.85
2017-12-22T03:20:39.145Z,92.25
2017-12-22T03:23:06.735Z,91.86
2017-12-22T03:25:34.324Z,92.07
2017-12-22T03:28:02.851Z,91.70
2017-12-22T03:30:30.475Z,92.00
2017-12-22T03:32:58.116Z,91.77
2017-12-22T03:35:25.740Z,91.92
2017-12-22T03:37:53.320Z,91.61
2017-12-22T03:40:20.943Z,91.67
2017-12-22T03:42:48.787Z,92.02
2017-12-22T03:45:16.612Z,91.65
2017-12-22T03:47:44.194Z,91.51
2017-12-22T03:50:11.779Z,91.79
2017-12-22T03:52:39.363Z,91.94
2017-12-22T03:55:06.948Z,92.01
2017-12-22T03:57:34.565Z,92.05
2017-12-22T04:00:02.155Z,92.36
2017-12-22T04:02:29.883Z,91.92
2017-12-22T04:04:57.568Z,91.72
2017-12-22T04:07:25.195Z,91.51
2017-12-22T04:09:52.818Z,91.80
2017-12-22T04:12:20.459Z,92.02
2017-12-22T04:14:48.035Z,91.70
2017-12-22T04:17:15.621Z,91.52
2017-12-22T04:19:43.321Z,91.78
2017-12-22T04:22:10.907Z,91.75
2017-12-22T04:24:38.499Z,91.76
2017-12-22T04:27:06.083Z,91.99
2017-12-22T04:29:33.662Z,92.25
2017-12-22T04:32:01.300Z,92.55
2017-12-22T04:34:28.871Z,92.58
2017-12-22T04:36:56.560Z,92.45
2017-12-22T04:39:24.140Z,91.62
2017-12-22T04:41:51.768Z,91.61
2017-12-22T04:44:19.352Z,91.66
2017-12-22T04:46:46.987Z,91.60
2017-12-22T04:49:14.619Z,91.65
2017-12-22T04:51:42.203Z,91.36
2017-12-22T04:54:09.883Z,91.98
2017-12-22T04:56:37.480Z,91.87
2017-12-22T04:59:05.163Z,91.57
2017-12-22T05:01:32.771Z,91.43
2017-12-22T05:04:00.360Z,91.75
2017-12-22T05:06:27.943Z,91.98
2017-12-22T05:08:55.530Z,91.17
2017-12-22T05:11:23.124Z,91.59
2017-12-22T05:13:50.699Z,90.94
2017-12-22T05:16:18.287Z,90.63
2017-12-22T05:18:45.915Z,90.42
2017-12-22T05:21:13.528Z,90.45
2017-12-22T05:23:41.147Z,90.15
2017-12-22T05:26:08.741Z,89.79
2017-12-22T05:28:36.327Z,90.35
2017-12-22T05:31:03.923Z,90.18
2017-12-22T05:33:31.559Z,89.73
2017-12-22T05:35:59.260Z,89.71
2017-12-22T05:38:26.855Z,89.54
2017-12-22T05:40:54.444Z,89.64
2017-12-22T05:43:22.031Z,88.96
2017-12-22T05:45:49.676Z,89.04
2017-12-22T05:48:17.295Z,89.09
2017-12-22T05:50:44.876Z,89.01
2017-12-22T05:53:12.497Z,88.73
2017-12-22T05:55:40.091Z,88.47
2017-12-22T05:58:07.714Z,88.63
2017-12-22T06:00:35.343Z,88.39
2017-12-22T06:03:02.935Z,88.63
2017-12-22T06:05:30.747Z,88.61
2017-12-22T06:07:58.464Z,88.43
2017-12-22T06:10:26.051Z,88.62
2017-12-22T06:12:53.640Z,88.68
2017-12-22T06:15:21.319Z,88.54
2017-12-22T06:17:48.930Z,88.91
2017-12-22T06:20:20.544Z,88.71
2017-12-22T06:22:48.128Z,88.78
2017-12-22T06:25:15.751Z,88.77
2017-12-22T06:27:43.343Z,88.86
2017-12-22T06:30:10.963Z,88.26
2017-12-22T06:32:38.552Z,88.94
2017-12-22T06:35:06.216Z,88.41
2017-12-22T06:37:33.819Z,88.31
2017-12-22T06:40:01.480Z,89.14
2017-12-22T06:42:29.073Z,88.97
2017-12-22T06:44:56.659Z,88.78
2017-12-22T06:47:24.247Z,88.60
2017-12-22T06:49:51.835Z,88.44
2017-12-22T06:52:19.421Z,89.39
2017-12-22T06:54:47.011Z,89.08
2017-12-22T06:57:14.629Z,88.99
2017-12-22T06:59:42.211Z,88.60
2017-12-22T07:02:09.831Z,88.62
2017-12-22T07:04:37.516Z,88.35
2017-12-22T07:07:05.135Z,88.16
2017-12-22T07:09:32.723Z,88.35
2017-12-22T07:12:00.364Z,88.72
2017-12-22T07:14:27.974Z,88.79
2017-12-22T07:16:55.562Z,88.34
2017-12-22T07:19:23.223Z,88.26
2017-12-22T07:21:51.669Z,88.42
2017-12-22T07:24:19.296Z,88.47
2017-12-22T07:26:46.879Z,88.89
2017-12-22T07:29:14.607Z,88.66
2017-12-22T07:31:42.414Z,88.55
2017-12-22T07:34:09.996Z,88.40
2017-12-22T07:36:37.585Z,88.74
2017-12-22T07:39:05.211Z,89.06
2017-12-22T07:41:32.935Z,88.62
2017-12-22T07:44:00.531Z,88.35
2017-12-22T07:46:28.116Z,89.12
2017-12-22T07:48:55.711Z,88.49
2017-12-22T07:51:23.355Z,87.96
2017-12-22T07:53:50.939Z,88.43
2017-12-22T07:56:18.518Z,88.46
2017-12-22T07:58:46.104Z,88.64
2017-12-22T08:01:13.694Z,88.60
2017-12-22T08:03:41.290Z,88.48
2017-12-22T08:06:08.967Z,88.53
2017-12-22T08:08:36.559Z,88.61
2017-12-22T08:11:04.147Z,88.98
2017-12-22T08:13:32.547Z,88.85
2017-12-22T08:16:00.135Z,89.01
2017-12-22T08:18:27.748Z,88.97
2017-12-22T08:20:55.323Z,89.54
2017-12-22T08:23:22.976Z,89.43
2017-12-22T08:25:50.683Z,89.57
2017-12-22T08:28:18.272Z,89.41
2017-12-22T08:30:45.859Z,89.18
2017-12-22T08:33:13.456Z,89.18
2017-12-22T08:35:41.035Z,89.24
2017-12-22T08:38:08.624Z,89.18
2017-12-22T08:40:36.252Z,88.96
2017-12-22T08:43:03.832Z,88.92
2017-12-22T08:45:31.414Z,89.10
2017-12-22T08:47:59.016Z,88.49
2017-12-22T08:50:26.608Z,88.53
2017-12-22T08:52:54.339Z,88.21
2017-12-22T08:55:21.927Z,88.68
2017-12-22T08:57:50.107Z,88.19
2017-12-22T09:00:18.276Z,87.74
2017-12-22T09:02:45.859Z,88.07
2017-12-22T09:05:13.435Z,88.22
2017-12-22T09:07:41.033Z,87.12
2017-12-22T09:10:08.607Z,86.77
2017-12-22T09:12:36.211Z,86.67
2017-12-22T09:15:05.032Z,86.56
2017-12-22T09:17:33.671Z,86.80
2017-12-22T09:20:01.347Z,86.57
2017-12-22T09:22:29.075Z,87.11
2017-12-22T09:24:56.665Z,87.16
2017-12-22T09:27:24.252Z,87.09
2017-12-22T09:29:51.834Z,86.94
2017-12-22T09:32:19.416Z,85.89
2017-12-22T09:34:47.006Z,85.88
2017-12-22T09:37:14.632Z,85.91
2017-12-22T09:39:42.774Z,85.78
2017-12-22T09:42:10.463Z,85.39
2017-12-22T09:44:38.095Z,85.90
2017-12-22T09:47:05.730Z,85.17
2017-12-22T09:49:33.515Z,84.90
2017-12-22T09:52:01.107Z,85.32
2017-12-22T09:54:28.732Z,84.96
2017-12-22T09:56:56.325Z,85.34
2017-12-22T09:59:23.912Z,84.53
2017-12-22T10:01:51.618Z,84.35
2017-12-22T10:04:19.311Z,84.65
2017-12-22T10:06:46.962Z,84.29
2017-12-22T10:09:14.583Z,85.20
2017-12-22T10:11:43.254Z,84.38
2017-12-22T10:14:10.860Z,84.08
2017-12-22T10:16:38.456Z,83.95
2017-12-22T10:19:06.056Z,84.29
2017-12-22T10:21:33.755Z,83.62
2017-12-22T10:24:01.342Z,83.71
2017-12-22T10:26:29.608Z,83.88
2017-12-22T10:28:57.193Z,84.26
2017-12-22T10:31:24.803Z,83.92
2017-12-22T10:33:52.387Z,84.25
2017-12-22T10:36:20.230Z,83.57
2017-12-22T10:38:47.842Z,82.97
2017-12-22T10:41:15.447Z,82.91
2017-12-22T10:43:43.027Z,82.82
2017-12-22T10:46:10.655Z,82.94
2017-12-22T10:48:38.969Z,83.61
2017-12-22T10:51:06.548Z,83.79
2017-12-22T10:53:34.133Z,83.75
2017-12-22T10:56:02.470Z,84.23
2017-12-22T10:58:30.109Z,84.33
2017-12-22T11:00:57.711Z,84.30
2017-12-22T11:03:25.764Z,84.62
2017-12-22T11:05:53.344Z,84.83
2017-12-22T11:08:20.988Z,84.85
2017-12-22T11:10:48.703Z,84.93
2017-12-22T11:13:16.339Z,85.15
2017-12-22T11:15:44.037Z,85.64
2017-12-22T11:18:11.660Z,86.25
2017-12-22T11:20:39.587Z,86.91
2017-12-22T11:23:07.172Z,87.38
2017-12-22T11:25:34.752Z,87.47
2017-12-22T11:28:02.331Z,87.54
2017-12-22T11:30:29.983Z,86.97
2017-12-22T11:32:57.564Z,87.00
2017-12-22T11:35:25.276Z,87.09
2017-12-22T11:37:52.860Z,86.84
2017-12-22T11:40:21.337Z,87.04
2017-12-22T11:42:48.918Z,87.06
2017-12-22T11:45:16.503Z,86.68
2017-12-22T11:47:44.088Z,86.28
2017-12-22T11:50:11.669Z,85.88
2017-12-22T11:52:39.300Z,85.97
2017-12-22T11:55:06.955Z,86.24
2017-12-22T11:57:34.535Z,85.97
2017-12-22T12:00:02.126Z,85.96
2017-12-22T12:02:29.793Z,86.29
2017-12-22T12:04:57.392Z,86.82
2017-12-22T12:07:24.979Z,86.23
2017-12-22T12:09:52.608Z,86.67
2017-12-22T12:12:20.200Z,85.26
2017-12-22T12:14:47.787Z,85.52
2017-12-22T12:17:15.477Z,85.98
2017-12-22T12:19:43.584Z,85.35
2017-12-22T12:22:11.323Z,85.12
2017-12-22T12:24:38.920Z,85.84
2017-12-22T12:27:07.788Z,85.92
2017-12-22T12:29:35.418Z,85.13
2017-12-22T12:32:03.088Z,85.23
2017-12-22T12:34:30.761Z,85.03
2017-12-22T12:36:58.380Z,85.38
2017-12-22T12:39:26.000Z,84.94
2017-12-22T12:41:53.622Z,85.12
2017-12-22T12:44:21.210Z,85.53
2017-12-22T12:46:49.229Z,85.79
2017-12-22T12:49:16.850Z,85.97
2017-12-22T12:51:44.429Z,85.72
2017-12-22T12:54:12.012Z,85.33
2017-12-22T12:56:39.617Z,84.89
2017-12-22T12:59:07.925Z,85.34
2017-12-22T13:01:35.878Z,84.68
2017-12-22T13:04:03.477Z,84.75
2017-12-22T13:06:31.060Z,84.53
2017-12-22T13:08:58.701Z,84.35
2017-12-22T13:11:26.389Z,84.55
2017-12-22T13:13:53.978Z,85.03
2017-12-22T13:16:21.732Z,85.03
2017-12-22T13:18:49.325Z,84.89
2017-12-22T13:21:16.910Z,84.49
2017-12-22T13:23:44.485Z,84.21
2017-12-22T13:26:12.127Z,84.56
2017-12-22T13:28:39.709Z,83.87
2017-12-22T13:31:07.403Z,83.88
2017-12-22T13:33:34.987Z,83.88
2017-12-22T13:36:02.571Z,83.96
2017-12-22T13:38:30.211Z,84.34
2017-12-22T13:40:57.909Z,83.97
2017-12-22T13:43:25.495Z,84.34
2017-12-22T13:45:53.174Z,84.02
2017-12-22T13:48:20.757Z,83.88
2017-12-22T13:50:48.335Z,83.74
2017-12-22T13:53:15.957Z,84.13
2017-12-22T13:55:43.535Z,84.02
2017-12-22T13:58:11.120Z,84.05
2017-12-22T14:00:38.700Z,84.30
2017-12-22T14:03:06.287Z,84.46
2017-12-22T14:05:33.889Z,84.43
2017-12-22T14:08:01.529Z,84.52
2017-12-22T14:10:29.144Z,84.83
2017-12-22T14:12:56.735Z,84.60
2017-12-22T14:15:24.367Z,84.22
2017-12-22T14:17:52.038Z,84.47
2017-12-22T14:20:19.620Z,83.82
2017-12-22T14:22:47.284Z,83.65
2017-12-22T14:25:14.881Z,83.38
2017-12-22T14:27:42.494Z,83.27
2017-12-22T14:30:10.188Z,82.69
2017-12-22T14:32:37.808Z,82.74
2017-12-22T14:35:05.447Z,82.94
2017-12-22T14:37:33.032Z,82.90
2017-12-22T14:40:00.686Z,83.39
2017-12-22T14:42:28.547Z,83.96
2017-12-22T14:44:56.254Z,84.44
2017-12-22T14:47:23.975Z,84.50
2017-12-22T14:49:51.657Z,85.15
2017-12-22T14:52:19.300Z,85.28
2017-12-22T14:54:46.893Z,85.54
2017-12-22T14:57:14.480Z,85.59
2017-12-22T14:59:42.060Z,85.61
2017-12-22T15:02:09.644Z,85.90
2017-12-22T15:04:37.241Z,85.74
2017-12-22T15:07:04.907Z,86.12
2017-12-22T15:09:32.503Z,86.05
2017-12-22T15:12:00.120Z,86.51
2017-12-22T15:14:27.967Z,86.30
2017-12-22T15:16:55.547Z,86.30
2017-12-22T15:19:23.977Z,86.93
2017-12-22T15:21:52.636Z,87.04
2017-12-22T15:24:20.662Z,87.58
2017-12-22T15:26:52.928Z,87.18
2017-12-22T15:29:20.724Z,87.33
2017-12-22T15:31:48.303Z,87.36
2017-12-22T15:34:15.971Z,87.98
2017-12-22T15:36:43.602Z,88.05
2017-12-22T15:39:11.180Z,88.46
2017-12-22T15:41:38.833Z,88.13
2017-12-22T15:44:07.020Z,88.03
2017-12-22T15:46:34.672Z,88.48
2017-12-22T15:49:02.255Z,88.35
2017-12-22T15:51:29.891Z,88.70
2017-12-22T15:53:57.520Z,88.78
2017-12-22T15:56:25.101Z,88.83
2017-12-22T15:58:52.781Z,89.19
2017-12-22T16:01:20.387Z,89.31
2017-12-22T16:03:47.961Z,89.21
2017-12-22T16:06:15.536Z,88.76
2017-12-22T16:08:43.116Z,88.87
2017-12-22T16:11:11.261Z,88.93
2017-12-22T16:13:38.924Z,89.47
2017-12-22T16:16:06.615Z,89.17
2017-12-22T16:18:34.791Z,89.57
2017-12-22T16:21:02.462Z,89.35
2017-12-22T16:23:30.083Z,89.51
2017-12-22T16:25:57.734Z,89.87
2017-12-22T16:28:25.379Z,90.10
2017-12-22T16:30:52.993Z,89.91
2017-12-22T16:33:20.570Z,89.99
2017-12-22T16:35:48.149Z,89.32
2017-12-22T16:38:15.800Z,89.07
2017-12-22T16:40:43.505Z,89.47
2017-12-22T16:43:11.085Z,89.18
2017-12-22T16:45:38.706Z,88.65
2017-12-22T16:48:06.283Z,88.79
2017-12-22T16:50:33.855Z,88.29
2017-12-22T16:53:01.432Z,87.76
2017-12-22T16:55:29.052Z,87.87
2017-12-22T16:57:56.685Z,87.61
2017-12-22T17:00:24.308Z,87.52
2017-12-22T17:02:52.153Z,87.50
2017-12-22T17:05:19.812Z,87.56
2017-12-22T17:07:47.390Z,87.45
2017-12-22T17:10:24.805Z,87.19
2017-12-22T17:12:55.147Z,87.32
2017-12-22T17:15:24.826Z,87.63
2017-12-22T17:17:54.349Z,88.26
2017-12-22T17:20:24.096Z,88.07
2017-12-22T17:22:54.354Z,88.16
2017-12-22T17:25:23.866Z,88.84
2017-12-22T17:27:52.988Z,88.98
2017-12-22T17:30:25.076Z,89.15
2017-12-22T17:32:56.318Z,89.17
2017-12-22T17:35:36.890Z,89.23
2017-12-22T17:38:08.849Z,89.81
2017-12-22T17:40:38.638Z,89.63
2017-12-22T17:43:07.833Z,89.85
2017-12-22T17:45:35.739Z,89.54
2017-12-22T17:48:03.765Z,89.43
2017-12-22T17:50:32.071Z,89.29
2017-12-22T17:53:00.322Z,89.98
2017-12-22T17:55:29.224Z,89.28
2017-12-22T17:57:56.993Z,89.41
2017-12-22T18:00:24.991Z,89.49
2017-12-22T18:02:52.820Z,89.17
2017-12-22T18:05:21.003Z,89.15
2017-12-22T18:07:50.493Z,88.80
2017-12-22T18:10:21.354Z,88.73
2017-12-22T18:12:49.089Z,89.12
2017-12-22T18:15:16.775Z,89.52
2017-12-22T18:17:44.444Z,89.69
2017-12-22T18:20:12.184Z,89.53
2017-12-22T18:22:39.832Z,89.92
2017-12-22T18:25:07.471Z,90.09
2017-12-22T18:27:35.101Z,90.05
2017-12-22T18:30:02.737Z,90.00
2017-12-22T18:32:30.379Z,90.36
2017-12-22T18:34:58.014Z,90.00
2017-12-22T18:37:25.702Z,90.23
2017-12-22T18:39:53.361Z,90.00
2017-12-22T18:42:21.564Z,89.55
2017-12-22T18:44:49.306Z,89.73
2017-12-22T18:47:16.900Z,90.16
2017-12-22T18:49:44.739Z,90.03
2017-12-22T18:52:12.371Z,90.07
2017-12-22T18:54:39.951Z,90.47
2017-12-22T18:57:07.617Z,90.96
2017-12-22T18:59:35.226Z,90.56
2017-12-22T19:02:02.883Z,90.31
2017-12-22T19:04:31.264Z,90.46
2017-12-22T19:06:58.851Z,90.62
2017-12-22T19:09:26.443Z,90.85
2017-12-22T19:11:54.072Z,90.87
2017-12-22T19:14:21.659Z,91.33
2017-12-22T19:16:49.353Z,90.91
2017-12-22T19:19:17.036Z,91.15
2017-12-22T19:21:44.615Z,91.43
2017-12-22T19:24:12.219Z,91.62
2017-12-22T19:26:39.902Z,91.34
2017-12-22T19:29:07.524Z,91.74
2017-12-22T19:31:35.179Z,91.54
2017-12-22T19:34:02.756Z,91.65
2017-12-22T19:36:30.335Z,91.27
2017-12-22T19:38:57.964Z,91.29
2017-12-22T19:41:25.784Z,91.27
2017-12-22T19:43:53.369Z,91.22
2017-12-22T19:46:21.112Z,91.03
2017-12-22T19:48:48.695Z,91.10
2017-12-22T19:51:16.276Z,91.27
2017-12-22T19:53:43.972Z,91.32
2017-12-22T19:56:11.550Z,90.93
2017-12-22T19:58:39.168Z,90.93
2017-12-22T20:01:06.871Z,90.48
2017-12-22T20:03:37.426Z,90.23
2017-12-22T20:06:05.861Z,90.29
2017-12-22T20:08:37.709Z,90.17
2017-12-22T20:11:10.128Z,89.75
2017-12-22T20:13:44.563Z,89.43
2017-12-22T20:16:15.907Z,89.25
2017-12-22T20:18:47.083Z,89.20
2017-12-22T20:21:16.962Z,88.87
2017-12-22T20:23:51.845Z,88.98
2017-12-22T20:26:23.571Z,89.17
2017-12-22T20:28:51.515Z,89.29
2017-12-22T20:31:20.055Z,89.25
2017-12-22T20:33:52.159Z,89.54
2017-12-22T20:36:22.385Z,89.35
2017-12-22T20:38:50.077Z,89.59
2017-12-22T20:41:20.843Z,89.53
2017-12-22T20:43:48.504Z,89.17
2017-12-22T20:46:16.176Z,89.32
2017-12-22T20:48:47.069Z,89.23
2017-12-22T20:51:14.853Z,89.53
2017-12-22T20:53:53.171Z,89.46
2017-12-22T20:56:21.620Z,89.99
2017-12-22T20:58:49.291Z,89.72
2017-12-22T21:01:16.927Z,89.99
2017-12-22T21:03:44.511Z,89.82
2017-12-22T21:06:12.089Z,90.13
2017-12-22T21:08:39.672Z,89.72
2017-12-22T21:11:07.251Z,89.37
2017-12-22T21:13:34.940Z,89.53
2017-12-22T21:16:03.231Z,89.33
2017-12-22T21:18:31.048Z,89.01
2017-12-22T21:20:58.725Z,89.26
2017-12-22T21:23:26.627Z,89.10
2017-12-22T21:25:54.213Z,89.00
2017-12-22T21:28:22.461Z,88.97
2017-12-22T21:30:50.875Z,88.68
2017-12-22T21:33:18.452Z,88.64
2017-12-22T21:35:46.035Z,89.04
2017-12-22T21:38:15.080Z,88.89
2017-12-22T21:40:43.499Z,88.87
2017-12-22T21:43:11.091Z,88.88
2017-12-22T21:45:39.657Z,88.63
2017-12-22T21:48:07.311Z,89.04
2017-12-22T21:50:35.441Z,88.52
2017-12-22T21:53:03.823Z,88.57
2017-12-22T21:55:31.554Z,88.54
2017-12-22T21:57:59.135Z,88.25
2017-12-22T22:00:26.724Z,88.36
2017-12-22T22:02:55.055Z,88.88
2017-12-22T22:05:22.673Z,89.01
2017-12-22T22:07:50.321Z,88.58
2017-12-22T22:10:19.603Z,88.89
2017-12-22T22:12:47.187Z,89.33
2017-12-22T22:15:14.823Z,88.53
2017-12-22T22:17:42.467Z,88.33
2017-12-22T22:20:10.200Z,88.54
2017-12-22T22:22:39.563Z,88.32
2017-12-22T22:25:07.139Z,88.30
2017-12-22T22:27:34.786Z,88.50
2017-12-22T22:30:02.367Z,88.88
2017-12-22T22:32:30.150Z,88.82
2017-12-22T22:34:57.842Z,88.90
2017-12-22T22:37:25.487Z,88.67
2017-12-22T22:39:53.155Z,88.59
2017-12-22T22:42:20.751Z,88.86
2017-12-22T22:44:48.435Z,88.63
2017-12-22T22:47:16.233Z,89.02
2017-12-22T22:49:43.814Z,88.67
2017-12-22T22:52:11.487Z,88.91
2017-12-22T22:54:39.115Z,89.25
2017-12-22T22:57:06.777Z,89.31
2017-12-22T22:59:34.388Z,88.97
2017-12-22T23:02:01.967Z,89.26
2017-12-22T23:04:29.587Z,89.08
2017-12-22T23:06:57.177Z,89.35
2017-12-22T23:09:24.758Z,88.97
2017-12-22T23:11:52.865Z,89.41
2017-12-22T23:14:20.447Z,88.93
2017-12-22T23:16:48.119Z,88.96
2017-12-22T23:19:15.755Z,88.87
2017-12-22T23:21:43.335Z,89.35
2017-12-22T23:24:10.920Z,89.07
2017-12-22T23:26:38.500Z,88.93
2017-12-22T23:29:06.196Z,88.97
2017-12-22T23:31:45.755Z,89.08
2017-12-22T23:34:13.399Z,88.89
2017-12-22T23:36:41.027Z,88.74
2017-12-22T23:39:08.603Z,88.96
2017-12-22T23:41:36.288Z,89.31
2017-12-22T23:44:03.947Z,89.59
2017-12-22T23:46:31.563Z,89.57
2017-12-22T23:48:59.147Z,89.11
2017-12-22T23:51:26.871Z,88.97
2017-12-22T23:53:54.484Z,88.52
2017-12-22T23:56:22.094Z,88.77
2017-12-22T23:58:49.687Z,88.65
